Time;durP1;ratioP1;P1;durP2;ratioP2;P2;SDS_P1;SDS_P2;PMS_P1;PMS_P2;Temp;Humidity;BMP_temperature;BMP_pressure;BME280_temperature;BME280_humidity;BME280_pressure;Samples;Min_cycle;Max_cycle;Signal;HPM_P1;HPM_P2
2021/09/12 00:08:04;;;;;;;8.23;2.65;;;17.80;99.90;;;;;;6692608;88;20208;-77
2021/09/12 00:18:04;;;;;;;4.57;2.87;;;17.70;99.90;;;;;;6698842;88;20202;-77
2021/09/12 00:28:05;;;;;;;3.40;2.53;;;17.70;99.90;;;;;;6697845;88;20187;-77
2021/09/12 00:38:08;;;;;;;4.67;3.00;;;17.60;99.90;;;;;;6697775;88;20228;-78
2021/09/12 00:48:11;;;;;;;6.25;2.97;;;17.40;99.90;;;;;;6697332;88;20530;-77
2021/09/12 00:58:15;;;;;;;5.82;3.40;;;17.40;99.90;;;;;;6691665;88;20665;-77
2021/09/12 01:08:17;;;;;;;6.62;2.97;;;17.20;99.90;;;;;;6696087;88;20235;-77
2021/09/12 01:18:17;;;;;;;5.85;3.10;;;17.00;99.90;;;;;;6696940;88;20197;-77
2021/09/12 01:28:18;;;;;;;5.40;2.92;;;16.70;99.90;;;;;;6699263;88;20186;-77
2021/09/12 01:38:19;;;;;;;4.97;3.20;;;16.70;99.90;;;;;;6699477;88;20257;-77
2021/09/12 01:48:19;;;;;;;8.77;3.30;;;16.40;99.90;;;;;;6698481;88;20505;-77
2021/09/12 01:58:20;;;;;;;6.82;3.22;;;16.30;99.90;;;;;;6695952;88;20255;-77
2021/09/12 02:08:20;;;;;;;4.65;3.10;;;16.30;99.90;;;;;;6700220;88;20199;-78
2021/09/12 02:18:21;;;;;;;6.00;3.03;;;16.30;99.90;;;;;;6703244;88;20258;-77
2021/09/12 02:28:22;;;;;;;5.50;3.13;;;16.00;99.90;;;;;;6702243;88;20194;-77
2021/09/12 02:38:22;;;;;;;4.53;3.10;;;15.90;99.90;;;;;;6696896;88;20648;-77
2021/09/12 02:48:23;;;;;;;6.55;3.10;;;15.80;99.90;;;;;;6700966;88;20313;-77
2021/09/12 02:58:24;;;;;;;4.70;3.22;;;15.60;99.90;;;;;;6701689;88;20224;-77
2021/09/12 03:08:24;;;;;;;4.65;3.10;;;15.50;99.90;;;;;;6700843;88;20207;-78
2021/09/12 03:18:25;;;;;;;4.72;2.80;;;15.70;99.90;;;;;;6698722;88;20658;-78
2021/09/12 03:28:25;;;;;;;3.80;2.80;;;15.80;99.90;;;;;;6701386;88;20206;-78
2021/09/12 03:38:26;;;;;;;4.55;2.80;;;15.80;99.90;;;;;;6697298;88;20205;-77
2021/09/12 03:48:26;;;;;;;5.82;3.08;;;15.80;99.90;;;;;;6701752;88;20227;-77
2021/09/12 03:58:27;;;;;;;4.80;2.87;;;15.90;99.90;;;;;;6697675;88;20191;-77
2021/09/12 04:08:27;;;;;;;5.40;3.00;;;15.60;99.90;;;;;;6703072;88;21868;-78
2021/09/12 04:18:28;;;;;;;4.57;2.90;;;15.70;99.90;;;;;;6700669;88;20191;-77
2021/09/12 04:28:29;;;;;;;5.50;2.60;;;15.90;99.90;;;;;;6700462;88;20214;-77
2021/09/12 04:38:29;;;;;;;5.80;2.65;;;15.80;99.90;;;;;;6700434;88;21018;-77
2021/09/12 04:48:30;;;;;;;4.87;2.80;;;15.80;99.90;;;;;;6698596;88;20384;-77
2021/09/12 04:58:30;;;;;;;5.07;2.62;;;15.90;99.90;;;;;;6699929;88;20533;-77
2021/09/12 05:08:31;;;;;;;4.10;2.70;;;16.10;99.90;;;;;;6699441;88;20248;-77
2021/09/12 05:18:32;;;;;;;6.62;3.10;;;15.90;99.90;;;;;;6693255;88;21000;-76
2021/09/12 05:28:34;;;;;;;6.70;2.97;;;16.10;99.90;;;;;;6700571;88;20208;-77
2021/09/12 05:38:34;;;;;;;5.40;3.05;;;16.10;99.90;;;;;;6699926;88;20228;-77
2021/09/12 05:48:35;;;;;;;4.18;3.05;;;15.90;99.90;;;;;;6699173;88;20233;-76
2021/09/12 05:58:35;;;;;;;4.75;3.28;;;16.10;99.90;;;;;;6697803;88;20237;-77
2021/09/12 06:08:36;;;;;;;4.87;3.00;;;16.10;99.90;;;;;;6698061;88;20312;-77
2021/09/12 06:18:37;;;;;;;4.85;2.75;;;16.20;99.90;;;;;;6703590;88;20206;-77
2021/09/12 06:28:37;;;;;;;5.12;2.67;;;16.40;99.90;;;;;;6704326;88;20705;-77
2021/09/12 06:38:38;;;;;;;4.60;2.80;;;16.50;99.90;;;;;;6703076;88;20249;-77
2021/09/12 06:48:38;;;;;;;4.80;2.78;;;16.70;99.90;;;;;;6699571;88;20691;-77
2021/09/12 06:58:39;;;;;;;6.20;2.90;;;16.80;99.90;;;;;;6702888;88;20778;-77
2021/09/12 07:08:40;;;;;;;4.57;2.50;;;16.90;99.90;;;;;;6702593;88;20260;-77
2021/09/12 07:18:40;;;;;;;5.20;2.50;;;16.90;99.90;;;;;;6703333;88;20246;-78
2021/09/12 07:28:41;;;;;;;3.62;2.40;;;17.20;99.90;;;;;;6703743;88;20203;-78
2021/09/12 07:38:41;;;;;;;7.32;2.72;;;17.50;99.90;;;;;;6707290;88;20346;-78
2021/09/12 07:48:42;;;;;;;5.45;2.90;;;17.90;99.90;;;;;;6707591;88;20315;-79
2021/09/12 07:58:42;;;;;;;7.50;3.17;;;17.90;99.90;;;;;;6704389;88;20641;-77
2021/09/12 08:08:43;;;;;;;5.82;3.40;;;18.00;99.90;;;;;;6706818;77;20305;-80
2021/09/12 08:18:43;;;;;;;8.10;3.10;;;18.40;99.90;;;;;;6710628;88;20195;-81
2021/09/12 08:28:44;;;;;;;5.27;3.37;;;19.10;99.90;;;;;;6718080;88;20731;-81
2021/09/12 08:38:44;;;;;;;7.97;4.32;;;19.50;99.90;;;;;;6722641;88;20523;-81
2021/09/12 08:48:46;;;;;;;8.48;4.35;;;19.90;99.90;;;;;;6711009;88;20248;-80
2021/09/12 08:58:46;;;;;;;6.07;3.80;;;20.60;99.90;;;;;;6712435;88;20178;-78
2021/09/12 09:08:55;;;;;;;4.53;2.53;;;21.30;99.90;;;;;;6703699;88;20216;-78
2021/09/12 09:19:05;;;;;;;4.55;2.62;;;20.80;99.90;;;;;;6698127;88;20527;-78
2021/09/12 09:29:06;;;;;;;5.22;2.20;;;21.10;99.90;;;;;;6731083;88;20216;-82
2021/09/12 09:39:07;;;;;;;5.72;1.90;;;21.50;99.90;;;;;;6729230;88;20261;-83
2021/09/12 09:49:26;;;;;;;7.93;2.45;;;21.40;99.90;;;;;;6698790;88;20158;-84
2021/09/12 09:59:28;;;;;;;5.40;2.25;;;21.50;99.90;;;;;;6732715;88;20190;-84
2021/09/12 10:09:29;;;;;;;3.22;2.10;;;22.20;99.90;;;;;;6728597;88;20197;-84
2021/09/12 10:19:41;;;;;;;5.80;2.37;;;22.30;99.90;;;;;;6728271;88;20748;-83
2021/09/12 10:29:52;;;;;;;5.53;2.30;;;22.40;99.90;;;;;;6721810;88;20186;-83
2021/09/12 10:39:52;;;;;;;3.97;1.98;;;23.40;99.90;;;;;;6727598;88;20841;-83
2021/09/12 10:49:53;;;;;;;3.90;1.95;;;23.90;99.90;;;;;;6733036;88;20154;-84
2021/09/12 10:59:54;;;;;;;4.22;1.90;;;23.10;99.90;;;;;;6727275;88;20302;-81
2021/09/12 11:09:54;;;;;;;5.27;1.97;;;23.00;99.90;;;;;;6733822;88;20305;-82
2021/09/12 11:19:55;;;;;;;4.72;2.00;;;23.00;99.90;;;;;;6728246;88;20169;-84
2021/09/12 11:29:55;;;;;;;2.80;1.60;;;24.10;99.90;;;;;;6722038;88;20213;-80
2021/09/12 12:21:12;;;;;;;3.80;1.58;;;25.10;97.80;;;;;;6729695;88;20070;-84
2021/09/12 12:31:16;;;;;;;4.43;1.70;;;25.30;97.20;;;;;;6709990;88;20178;-82
2021/09/12 13:11:34;;;;;;;4.30;1.52;;;27.70;94.90;;;;;;6749491;88;20237;-82
2021/09/12 13:21:35;;;;;;;4.15;1.40;;;27.70;92.40;;;;;;6745183;88;20198;-82
2021/09/12 13:31:36;;;;;;;4.15;1.62;;;26.10;93.20;;;;;;6746824;88;20189;-83
2021/09/12 13:41:36;;;;;;;2.78;1.40;;;27.50;93.20;;;;;;6746750;88;20197;-83
2021/09/12 13:51:37;;;;;;;3.53;1.27;;;28.80;92.10;;;;;;6747809;88;20193;-82
2021/09/12 14:11:41;;;;;;;3.85;1.55;;;27.20;88.10;;;;;;6705154;88;20206;-79
2021/09/12 14:21:41;;;;;;;2.83;1.30;;;28.00;89.20;;;;;;6697435;88;20223;-79
2021/09/12 14:31:42;;;;;;;4.00;1.50;;;27.70;86.50;;;;;;6699360;88;20182;-77
2021/09/12 14:41:43;;;;;;;3.83;1.50;;;27.30;87.60;;;;;;6705120;88;20239;-79
2021/09/12 14:51:43;;;;;;;3.15;1.30;;;27.70;88.00;;;;;;6701696;88;20922;-78
2021/09/12 15:01:44;;;;;;;4.43;1.40;;;27.20;87.70;;;;;;6698052;88;20221;-79
2021/09/12 15:11:44;;;;;;;3.40;1.17;;;26.60;90.30;;;;;;6702430;88;20195;-80
2021/09/12 15:21:45;;;;;;;3.78;1.40;;;26.60;90.30;;;;;;6699188;88;20183;-79
2021/09/12 15:31:45;;;;;;;4.32;1.60;;;26.90;90.00;;;;;;6707639;88;20198;-76
2021/09/12 15:41:47;;;;;;;3.03;1.50;;;26.00;90.40;;;;;;6703129;88;20219;-77
2021/09/12 15:51:47;;;;;;;4.57;1.50;;;25.60;90.90;;;;;;6701140;88;20183;-78
2021/09/12 16:01:48;;;;;;;3.87;1.40;;;25.10;91.20;;;;;;6699799;88;20221;-78
2021/09/12 16:11:50;;;;;;;4.37;1.50;;;24.50;91.60;;;;;;6697322;88;20279;-78
2021/09/12 16:21:51;;;;;;;4.87;1.45;;;23.80;92.60;;;;;;6703479;88;20762;-79
2021/09/12 16:31:52;;;;;;;3.62;1.60;;;23.30;93.20;;;;;;6707459;88;20185;-80
2021/09/12 16:41:52;;;;;;;3.87;1.40;;;23.10;93.70;;;;;;6712727;88;20199;-80
2021/09/12 16:51:52;;;;;;;4.95;1.80;;;22.60;95.30;;;;;;6704151;88;20345;-79
2021/09/12 17:01:53;;;;;;;4.68;1.80;;;22.00;95.90;;;;;;6707359;88;20206;-79
2021/09/12 17:11:53;;;;;;;3.72;1.80;;;21.80;96.70;;;;;;6701415;88;20202;-78
2021/09/12 17:21:57;;;;;;;3.53;1.85;;;21.50;97.50;;;;;;6699921;88;20211;-78
2021/09/12 17:31:57;;;;;;;5.40;2.17;;;21.20;98.60;;;;;;6699337;88;20210;-79
2021/09/12 17:41:58;;;;;;;6.72;2.50;;;20.80;99.90;;;;;;6697103;88;20187;-78
2021/09/12 17:51:59;;;;;;;5.32;2.40;;;20.50;99.90;;;;;;6704126;88;20194;-77
2021/09/12 18:02:00;;;;;;;4.40;2.35;;;20.40;99.90;;;;;;6703909;88;20191;-78
2021/09/12 18:12:01;;;;;;;6.80;3.30;;;20.10;99.90;;;;;;6699491;88;20236;-77
2021/09/12 18:22:02;;;;;;;8.88;3.10;;;19.70;99.90;;;;;;6701525;88;20367;-78
2021/09/12 18:32:02;;;;;;;6.12;3.30;;;19.40;99.90;;;;;;6707901;88;20182;-78
2021/09/12 18:42:03;;;;;;;4.77;2.90;;;19.00;99.90;;;;;;6716526;88;20958;-79
2021/09/12 18:52:04;;;;;;;6.90;3.40;;;18.80;99.90;;;;;;6712427;88;20496;-77
2021/09/12 19:02:04;;;;;;;7.03;3.70;;;18.50;99.90;;;;;;6703595;88;20391;-78
2021/09/12 19:12:07;;;;;;;5.20;3.12;;;18.40;99.90;;;;;;6703446;88;20327;-77
2021/09/12 19:22:07;;;;;;;7.28;3.22;;;18.20;99.90;;;;;;6705631;88;20167;-78
2021/09/12 19:32:08;;;;;;;8.50;4.12;;;18.00;99.90;;;;;;6706960;88;20203;-78
2021/09/12 19:42:09;;;;;;;6.32;4.35;;;17.90;99.90;;;;;;6706091;88;20199;-77
2021/09/12 19:52:09;;;;;;;7.00;3.60;;;17.80;99.90;;;;;;6707480;88;20226;-78
2021/09/12 20:12:13;;;;;;;7.62;3.55;;;17.40;99.90;;;;;;6722281;88;20360;-79
2021/09/12 20:22:14;;;;;;;7.37;4.35;;;17.20;99.90;;;;;;6705391;88;20234;-81
2021/09/12 20:32:14;;;;;;;7.62;4.12;;;16.90;99.90;;;;;;6706341;88;20234;-80
2021/09/12 20:42:15;;;;;;;7.55;4.50;;;16.80;99.90;;;;;;6705235;88;20888;-79
2021/09/12 20:52:16;;;;;;;5.62;4.18;;;16.40;99.90;;;;;;6702124;88;20196;-79
2021/09/12 21:02:16;;;;;;;6.50;4.00;;;16.30;99.90;;;;;;6702010;88;20218;-79
2021/09/12 21:12:17;;;;;;;6.20;3.97;;;16.00;99.90;;;;;;6701785;88;20716;-80
2021/09/12 21:22:18;;;;;;;8.30;3.95;;;16.00;99.90;;;;;;6704870;88;20221;-80
2021/09/12 21:32:18;;;;;;;7.82;3.97;;;15.90;99.90;;;;;;6706301;88;20229;-79
2021/09/12 21:42:19;;;;;;;6.30;3.62;;;15.60;99.90;;;;;;6707833;88;20702;-80
2021/09/12 21:52:19;;;;;;;9.75;4.07;;;15.80;99.90;;;;;;6712486;88;20694;-80
2021/09/12 22:02:20;;;;;;;7.43;3.95;;;15.70;99.90;;;;;;6707906;88;20197;-79
2021/09/12 22:12:20;;;;;;;6.22;3.75;;;15.90;99.90;;;;;;6707834;88;20260;-79
2021/09/12 22:22:23;;;;;;;5.82;3.85;;;15.50;99.90;;;;;;6714732;88;20194;-80
2021/09/12 22:32:23;;;;;;;8.27;4.40;;;15.40;99.90;;;;;;6714156;88;20231;-80
2021/09/12 22:42:24;;;;;;;5.78;3.90;;;15.00;99.90;;;;;;6715148;88;20230;-80
2021/09/12 22:52:25;;;;;;;10.80;4.25;;;14.80;99.90;;;;;;6712841;88;20225;-80
2021/09/12 23:02:26;;;;;;;7.53;4.10;;;14.70;99.90;;;;;;6718333;88;20346;-80
2021/09/12 23:12:27;;;;;;;6.40;3.65;;;14.50;99.90;;;;;;6717438;88;20191;-80
2021/09/12 23:22:27;;;;;;;7.43;3.63;;;14.80;99.90;;;;;;6720545;88;20195;-80
2021/09/12 23:32:28;;;;;;;9.07;4.40;;;14.50;99.90;;;;;;6720020;88;20205;-79
2021/09/12 23:42:28;;;;;;;7.53;4.15;;;14.50;99.90;;;;;;6714133;88;20197;-79
2021/09/12 23:52:29;;;;;;;7.55;3.70;;;14.50;99.90;;;;;;6723159;88;20607;-79
